Time;durP1;ratioP1;P1;durP2;ratioP2;P2;SDS_P1;SDS_P2;PMS_P1;PMS_P2;Temp;Humidity;BMP_temperature;BMP_pressure;BME280_temperature;BME280_humidity;BME280_pressure;Samples;Min_cycle;Max_cycle;Signal;HPM_P1;HPM_P2
2022/01/27 00:00:38;;;;;;;55.20;31.77;;;5.50;82.10;;;;;;5017458;28;20040;-71
2022/01/27 00:05:55;;;;;;;49.30;31.85;;;5.50;82.20;;;;;;5032471;28;20068;-76
2022/01/27 00:08:35;;;;;;;51.25;31.92;;;5.60;82.10;;;;;;5015205;28;20038;-76
2022/01/27 00:11:08;;;;;;;49.47;31.38;;;5.50;81.80;;;;;;5014211;28;20033;-75
2022/01/27 00:13:43;;;;;;;51.58;32.38;;;5.50;81.70;;;;;;5002884;28;20100;-75
2022/01/27 00:18:43;;;;;;;49.17;30.48;;;5.50;81.70;;;;;;5017503;28;20193;-75
2022/01/27 00:21:09;;;;;;;54.08;30.60;;;5.50;81.60;;;;;;4994504;28;20029;-75
2022/01/27 00:23:36;;;;;;;49.40;31.83;;;5.50;81.50;;;;;;4994385;28;20030;-75
2022/01/27 00:26:02;;;;;;;49.10;30.48;;;5.50;81.50;;;;;;5030303;28;20052;-75
2022/01/27 00:28:28;;;;;;;45.55;28.73;;;5.50;81.50;;;;;;5031199;28;20029;-75
2022/01/27 00:30:54;;;;;;;48.47;28.60;;;5.50;81.50;;;;;;5031557;28;20045;-75
2022/01/27 00:33:19;;;;;;;47.05;28.65;;;5.50;81.50;;;;;;5013173;28;20075;-75
2022/01/27 00:35:45;;;;;;;46.10;26.85;;;5.50;81.40;;;;;;5013784;28;20034;-75
2022/01/27 00:38:11;;;;;;;43.00;25.83;;;5.50;81.30;;;;;;5030934;28;20036;-75
2022/01/27 00:40:46;;;;;;;45.35;26.27;;;5.50;81.40;;;;;;5013984;28;20029;-75
2022/01/27 00:43:12;;;;;;;41.20;26.00;;;5.50;81.50;;;;;;5013525;28;20083;-75
2022/01/27 00:45:37;;;;;;;39.65;23.95;;;5.50;81.30;;;;;;5030896;28;20061;-75
2022/01/27 00:48:05;;;;;;;39.85;25.58;;;5.50;81.20;;;;;;5012828;28;20040;-75
2022/01/27 00:50:33;;;;;;;44.28;26.63;;;5.50;81.10;;;;;;5013616;28;20021;-75
2022/01/27 00:53:01;;;;;;;42.90;24.77;;;5.50;81.10;;;;;;5015848;28;20038;-75
2022/01/27 00:55:31;;;;;;;37.00;22.75;;;5.50;81.10;;;;;;5012458;28;20071;-75
2022/01/27 00:58:10;;;;;;;39.42;23.33;;;5.50;81.10;;;;;;5030741;28;20025;-75
2022/01/27 01:00:41;;;;;;;37.35;22.50;;;5.50;81.10;;;;;;5031282;28;20088;-76
2022/01/27 01:03:24;;;;;;;36.70;22.75;;;5.50;81.70;;;;;;5030628;28;20072;-75
2022/01/27 01:16:00;;;;;;;37.88;23.33;;;5.60;80.70;;;;;;5030618;28;20076;-75
2022/01/27 01:31:50;;;;;;;44.30;27.00;;;5.60;80.70;;;;;;5030237;28;20064;-75
2022/01/27 01:34:20;;;;;;;40.83;25.98;;;5.50;80.60;;;;;;5013153;28;20389;-75
2022/01/27 01:36:55;;;;;;;39.00;25.05;;;5.60;80.70;;;;;;5030036;28;20017;-75
2022/01/27 01:39:24;;;;;;;44.72;25.92;;;5.60;80.90;;;;;;5012436;28;20037;-75
2022/01/27 01:41:50;;;;;;;40.75;25.65;;;5.60;80.80;;;;;;5030070;28;20075;-76
2022/01/27 01:44:16;;;;;;;43.22;26.10;;;5.50;80.80;;;;;;5030111;28;20032;-75
2022/01/27 01:46:41;;;;;;;41.33;24.98;;;5.60;81.00;;;;;;5029280;28;20038;-77
2022/01/27 01:49:07;;;;;;;42.58;24.75;;;5.50;80.90;;;;;;5029125;28;20497;-75
2022/01/27 01:51:35;;;;;;;37.53;25.15;;;5.60;80.90;;;;;;5029550;28;20026;-76
2022/01/27 01:54:02;;;;;;;38.45;25.55;;;5.50;81.00;;;;;;5029866;28;20559;-75
2022/01/27 01:56:28;;;;;;;42.42;26.02;;;5.50;80.80;;;;;;5028320;28;20492;-75
2022/01/27 01:58:54;;;;;;;43.08;26.52;;;5.50;80.90;;;;;;5029027;28;20053;-75
2022/01/27 02:01:20;;;;;;;39.35;25.38;;;5.50;81.00;;;;;;5029277;28;20522;-75
2022/01/27 02:03:54;;;;;;;42.95;26.40;;;5.50;81.00;;;;;;5013071;28;20385;-74
2022/01/27 02:06:31;;;;;;;42.92;26.70;;;5.50;81.10;;;;;;5007251;28;20026;-75
2022/01/27 02:19:58;;;;;;;43.75;25.77;;;5.50;81.30;;;;;;5030517;28;20182;-75
2022/01/27 02:22:25;;;;;;;42.90;26.60;;;5.50;81.30;;;;;;5029301;28;20522;-74
2022/01/27 02:24:51;;;;;;;41.35;26.13;;;5.50;81.30;;;;;;5029821;28;20030;-76
2022/01/27 02:27:18;;;;;;;41.38;25.73;;;5.50;81.40;;;;;;5011665;28;20039;-78
2022/01/27 02:29:47;;;;;;;45.58;25.92;;;5.50;81.40;;;;;;5029400;28;20053;-77
2022/01/27 02:32:15;;;;;;;43.25;27.17;;;5.50;81.40;;;;;;5010794;28;20017;-76
2022/01/27 02:34:42;;;;;;;43.55;26.23;;;5.50;81.40;;;;;;5009796;28;20033;-74
2022/01/27 02:37:09;;;;;;;42.50;26.48;;;5.50;81.50;;;;;;5009716;28;20068;-74
2022/01/27 02:39:35;;;;;;;41.67;26.52;;;5.40;81.50;;;;;;5011572;28;20033;-75
2022/01/27 02:42:21;;;;;;;43.55;25.95;;;5.40;81.50;;;;;;5013105;28;20519;-75
2022/01/27 02:44:51;;;;;;;42.75;26.30;;;5.50;81.60;;;;;;5028271;28;20030;-74
2022/01/27 02:47:17;;;;;;;42.65;26.88;;;5.50;81.50;;;;;;5028170;28;20029;-74
2022/01/27 02:49:43;;;;;;;40.40;25.70;;;5.50;81.50;;;;;;5011147;28;20029;-75
2022/01/27 02:52:09;;;;;;;44.90;27.05;;;5.50;81.60;;;;;;5010784;28;20246;-75
2022/01/27 02:54:36;;;;;;;39.38;24.52;;;5.50;81.60;;;;;;5029247;28;20022;-75
2022/01/27 02:57:02;;;;;;;38.28;24.75;;;5.50;81.60;;;;;;5028694;28;20124;-75
2022/01/27 02:59:27;;;;;;;42.03;26.50;;;5.50;81.70;;;;;;5028886;28;20441;-75
2022/01/27 03:01:54;;;;;;;41.55;25.63;;;5.50;81.70;;;;;;5028498;28;20036;-75
2022/01/27 03:04:21;;;;;;;39.72;26.60;;;5.60;81.70;;;;;;5029317;28;20100;-75
2022/01/27 03:06:48;;;;;;;39.90;23.88;;;5.50;81.70;;;;;;4995569;28;20395;-75
2022/01/27 03:09:14;;;;;;;40.33;24.98;;;5.50;81.70;;;;;;5032390;28;20025;-75
2022/01/27 03:11:45;;;;;;;41.78;25.23;;;5.50;81.60;;;;;;5032588;28;20124;-74
2022/01/27 03:14:12;;;;;;;41.22;26.33;;;5.60;81.70;;;;;;5033108;28;20101;-75
2022/01/27 03:16:38;;;;;;;40.45;25.80;;;5.60;81.60;;;;;;5033566;28;20026;-75
2022/01/27 03:19:04;;;;;;;42.90;24.83;;;5.60;81.70;;;;;;5032208;28;20086;-74
2022/01/27 03:21:30;;;;;;;36.90;23.80;;;5.60;81.80;;;;;;5032651;28;20034;-75
2022/01/27 03:23:56;;;;;;;44.53;25.17;;;5.60;81.80;;;;;;5032366;28;20087;-75
2022/01/27 03:26:23;;;;;;;38.30;24.92;;;5.60;81.70;;;;;;5032180;28;20116;-75
2022/01/27 03:28:49;;;;;;;39.83;25.42;;;5.60;81.60;;;;;;5014780;28;20422;-75
2022/01/27 03:31:15;;;;;;;38.58;25.23;;;5.60;81.70;;;;;;5031168;28;20128;-75
2022/01/27 03:33:41;;;;;;;39.00;25.17;;;5.60;81.70;;;;;;5032589;28;20026;-75
2022/01/27 03:36:08;;;;;;;42.08;25.05;;;5.60;81.60;;;;;;5032048;28;20080;-75
2022/01/27 03:38:34;;;;;;;41.20;25.50;;;5.60;81.70;;;;;;5014525;28;20017;-75
2022/01/27 03:41:05;;;;;;;40.42;24.95;;;5.60;81.60;;;;;;4995917;28;20033;-75
2022/01/27 03:43:30;;;;;;;39.80;24.88;;;5.60;81.80;;;;;;5031756;28;20025;-75
2022/01/27 03:45:56;;;;;;;37.42;23.88;;;5.70;81.70;;;;;;5032124;28;20042;-75
2022/01/27 03:48:22;;;;;;;39.83;25.48;;;5.70;81.80;;;;;;5013457;28;20076;-74
2022/01/27 03:50:47;;;;;;;42.55;24.92;;;5.70;81.70;;;;;;5031825;28;20040;-75
2022/01/27 03:53:14;;;;;;;41.50;24.40;;;5.70;81.60;;;;;;5016232;28;20369;-75
2022/01/27 03:55:41;;;;;;;41.95;25.48;;;5.70;81.60;;;;;;5022434;28;20387;-75
2022/01/27 03:58:07;;;;;;;41.50;24.23;;;5.70;81.70;;;;;;4994056;28;20149;-75
2022/01/27 04:00:33;;;;;;;37.28;24.20;;;5.70;81.80;;;;;;5028069;28;20112;-74
2022/01/27 04:03:05;;;;;;;39.40;25.40;;;5.70;81.90;;;;;;5030913;28;20025;-75
2022/01/27 04:05:44;;;;;;;34.97;24.23;;;5.70;81.80;;;;;;5031979;28;20147;-75
2022/01/27 04:08:12;;;;;;;36.83;24.02;;;5.70;81.70;;;;;;5031346;28;20090;-75
2022/01/27 04:10:39;;;;;;;36.53;24.85;;;5.70;81.80;;;;;;5031567;28;20022;-75
2022/01/27 04:13:07;;;;;;;34.97;24.50;;;5.80;81.90;;;;;;5032004;28;20029;-75
2022/01/27 04:15:34;;;;;;;41.17;25.45;;;5.70;81.80;;;;;;4997270;28;20040;-74
2022/01/27 04:18:00;;;;;;;39.42;24.50;;;5.70;81.90;;;;;;5030884;28;20037;-74
2022/01/27 04:20:25;;;;;;;35.42;23.98;;;5.70;81.80;;;;;;5030739;28;20028;-75
2022/01/27 04:22:51;;;;;;;38.60;24.80;;;5.70;81.90;;;;;;5013257;28;20045;-75
2022/01/27 04:25:17;;;;;;;39.90;24.42;;;5.70;81.80;;;;;;5031486;28;20036;-74
2022/01/27 04:27:48;;;;;;;38.85;24.38;;;5.70;81.90;;;;;;5013282;28;20026;-75
2022/01/27 04:30:19;;;;;;;37.53;24.42;;;5.80;82.00;;;;;;5022952;28;20046;-74
2022/01/27 04:32:53;;;;;;;38.38;23.20;;;5.70;82.00;;;;;;5013067;28;20025;-74
2022/01/27 04:35:21;;;;;;;39.08;25.13;;;5.70;82.00;;;;;;5030004;28;20037;-74
2022/01/27 04:40:35;;;;;;;43.13;24.85;;;5.80;82.80;;;;;;5014626;28;20037;-73
2022/01/27 04:45:43;;;;;;;36.45;22.85;;;5.80;82.10;;;;;;5031137;28;20076;-73
2022/01/27 04:48:13;;;;;;;37.08;23.17;;;5.80;82.00;;;;;;5030383;28;20033;-73
2022/01/27 04:50:39;;;;;;;36.03;23.33;;;5.80;82.00;;;;;;5013410;28;20045;-72
2022/01/27 04:53:09;;;;;;;34.80;22.52;;;5.80;82.10;;;;;;5013031;28;20040;-73
2022/01/27 04:55:35;;;;;;;34.60;21.23;;;5.80;82.20;;;;;;5030416;28;20107;-73
2022/01/27 04:58:17;;;;;;;34.20;21.77;;;5.80;82.30;;;;;;5029293;28;20473;-73
2022/01/27 05:00:44;;;;;;;30.20;20.00;;;5.80;82.30;;;;;;5026482;28;20044;-70
2022/01/27 05:03:18;;;;;;;38.60;22.77;;;5.80;82.30;;;;;;5048806;28;20395;-70
2022/01/27 05:05:46;;;;;;;35.75;22.38;;;5.80;82.30;;;;;;5025215;28;20423;-70
2022/01/27 05:08:18;;;;;;;34.25;21.75;;;5.90;82.30;;;;;;5009842;28;20049;-70
2022/01/27 05:10:54;;;;;;;36.97;21.50;;;5.90;82.30;;;;;;5024844;28;20037;-70
2022/01/27 05:13:21;;;;;;;36.00;22.80;;;5.90;82.40;;;;;;5024682;28;20061;-70
2022/01/27 05:15:47;;;;;;;34.80;22.02;;;5.80;82.40;;;;;;5028950;28;20057;-70
2022/01/27 05:18:15;;;;;;;38.35;20.83;;;5.80;82.50;;;;;;5028016;28;20052;-70
2022/01/27 05:20:41;;;;;;;36.95;22.17;;;5.80;82.60;;;;;;5028894;28;20022;-70
2022/01/27 05:23:07;;;;;;;39.70;21.63;;;5.80;82.70;;;;;;5041644;28;20036;-70
2022/01/27 05:25:33;;;;;;;36.45;22.05;;;5.90;82.80;;;;;;5027901;28;20030;-70
2022/01/27 05:28:00;;;;;;;32.80;21.23;;;5.80;82.80;;;;;;5030059;28;20029;-70
2022/01/27 05:30:26;;;;;;;37.65;23.70;;;5.80;82.90;;;;;;5028307;28;20348;-71
2022/01/27 05:32:51;;;;;;;39.38;22.92;;;5.90;83.10;;;;;;5026524;28;20040;-71
2022/01/27 05:35:18;;;;;;;37.85;21.63;;;5.90;83.30;;;;;;5041951;28;20021;-70
2022/01/27 05:37:43;;;;;;;34.95;20.63;;;5.80;83.40;;;;;;5028881;28;20028;-74
2022/01/27 05:40:09;;;;;;;30.83;19.83;;;5.90;83.50;;;;;;5043363;28;20076;-74
2022/01/27 05:42:35;;;;;;;35.17;20.83;;;5.80;83.60;;;;;;5021271;28;20036;-75
2022/01/27 05:45:01;;;;;;;35.90;21.20;;;5.90;83.70;;;;;;5038945;28;20337;-76
2022/01/27 05:47:26;;;;;;;38.03;21.58;;;5.90;83.90;;;;;;5042850;28;20028;-76
2022/01/27 05:49:52;;;;;;;37.60;20.70;;;5.90;84.00;;;;;;5037758;28;20021;-76
2022/01/27 05:52:19;;;;;;;37.88;20.55;;;5.90;84.20;;;;;;5032063;28;20108;-76
2022/01/27 05:54:45;;;;;;;41.22;21.70;;;5.90;84.40;;;;;;5037043;28;20151;-76
2022/01/27 05:57:12;;;;;;;35.08;21.02;;;5.90;84.80;;;;;;5030417;28;20113;-76
2022/01/27 05:59:38;;;;;;;38.15;21.70;;;5.90;85.20;;;;;;5023693;28;20044;-75
2022/01/27 06:02:04;;;;;;;36.08;20.25;;;5.80;85.40;;;;;;5024348;28;20041;-74
2022/01/27 06:04:29;;;;;;;40.38;22.17;;;5.80;85.80;;;;;;5035636;28;20041;-74
2022/01/27 06:06:55;;;;;;;39.70;20.65;;;5.80;86.20;;;;;;5024339;28;20100;-75
2022/01/27 06:09:21;;;;;;;40.92;22.38;;;5.80;86.40;;;;;;5028554;28;20032;-75
2022/01/27 06:11:47;;;;;;;35.22;19.65;;;5.80;86.80;;;;;;5031734;28;20040;-75
2022/01/27 06:14:12;;;;;;;36.85;20.92;;;5.80;87.00;;;;;;5026557;28;20025;-74
2022/01/27 06:16:38;;;;;;;37.65;20.77;;;5.80;87.30;;;;;;5030768;28;20072;-75
2022/01/27 06:19:06;;;;;;;36.03;20.85;;;5.80;87.40;;;;;;5026926;28;20037;-74
2022/01/27 06:21:34;;;;;;;34.60;20.02;;;5.80;87.70;;;;;;5027893;28;20120;-74
2022/01/27 06:24:00;;;;;;;37.53;21.83;;;5.80;87.70;;;;;;5028825;28;20037;-74
2022/01/27 06:26:28;;;;;;;36.50;20.70;;;5.80;88.00;;;;;;5023782;28;20033;-75
2022/01/27 06:28:53;;;;;;;36.95;19.83;;;5.80;88.20;;;;;;5030517;28;20033;-74
2022/01/27 06:31:19;;;;;;;40.20;20.70;;;5.80;88.30;;;;;;5030297;28;20048;-74
2022/01/27 06:33:45;;;;;;;36.88;19.05;;;5.80;88.50;;;;;;5046254;28;20025;-75
2022/01/27 06:36:10;;;;;;;37.47;19.60;;;5.90;88.60;;;;;;5032113;28;20037;-74
2022/01/27 06:38:36;;;;;;;32.88;18.27;;;5.90;88.70;;;;;;5028480;28;20044;-74
2022/01/27 06:41:02;;;;;;;33.50;17.65;;;5.90;88.70;;;;;;5026673;28;20037;-74
2022/01/27 06:43:27;;;;;;;35.40;19.88;;;5.90;88.70;;;;;;5031005;28;20033;-74
2022/01/27 06:45:53;;;;;;;35.17;18.35;;;6.00;88.80;;;;;;5032276;28;20030;-74
2022/01/27 06:48:19;;;;;;;35.85;17.40;;;6.00;88.90;;;;;;5045504;28;20029;-70
2022/01/27 06:50:48;;;;;;;30.83;15.90;;;6.10;89.00;;;;;;5040587;28;20413;-70
2022/01/27 06:53:13;;;;;;;32.53;17.02;;;6.10;89.00;;;;;;5052590;28;20468;-70
2022/01/27 06:55:39;;;;;;;31.23;16.10;;;6.10;89.10;;;;;;5037535;28;20024;-70
2022/01/27 06:58:05;;;;;;;32.95;17.00;;;6.20;89.10;;;;;;5030450;28;20038;-70
2022/01/27 07:00:30;;;;;;;32.67;16.85;;;6.20;89.10;;;;;;5031886;28;20056;-70
2022/01/27 07:02:56;;;;;;;33.80;17.13;;;6.20;89.10;;;;;;5023378;28;20060;-70
2022/01/27 07:05:22;;;;;;;32.58;17.13;;;6.30;89.20;;;;;;5043608;28;20045;-70
2022/01/27 07:07:47;;;;;;;35.80;16.60;;;6.30;89.20;;;;;;5036713;28;20029;-70
2022/01/27 07:10:13;;;;;;;32.80;16.90;;;6.30;89.20;;;;;;5033873;28;20033;-70
2022/01/27 07:12:40;;;;;;;33.28;17.65;;;6.40;89.30;;;;;;5031762;28;20029;-70
2022/01/27 07:15:07;;;;;;;32.30;17.75;;;6.40;89.30;;;;;;5031742;28;20033;-70
2022/01/27 07:17:33;;;;;;;33.22;17.20;;;6.40;89.30;;;;;;5026899;28;20022;-70
2022/01/27 07:19:58;;;;;;;33.70;18.58;;;6.40;89.40;;;;;;5033562;28;20491;-74
2022/01/27 07:22:24;;;;;;;37.72;18.08;;;6.40;89.90;;;;;;5031968;28;20022;-73
2022/01/27 07:24:50;;;;;;;39.38;17.77;;;6.40;90.00;;;;;;5031837;28;20116;-73
2022/01/27 07:27:16;;;;;;;34.17;18.25;;;6.40;90.40;;;;;;5043935;28;20057;-73
2022/01/27 07:29:42;;;;;;;38.50;18.40;;;6.40;90.30;;;;;;5030744;28;20045;-72
2022/01/27 07:32:08;;;;;;;36.83;19.75;;;6.40;90.40;;;;;;5025519;28;20056;-73
2022/01/27 07:34:34;;;;;;;35.75;19.67;;;6.40;90.50;;;;;;5031462;28;20022;-75
2022/01/27 07:37:02;;;;;;;35.00;18.65;;;6.40;90.60;;;;;;5013024;28;20041;-76
2022/01/27 07:39:27;;;;;;;34.42;19.10;;;6.30;90.70;;;;;;5031603;28;20046;-75
2022/01/27 07:41:57;;;;;;;34.65;18.38;;;6.30;90.80;;;;;;5036949;28;20473;-75
2022/01/27 07:44:24;;;;;;;34.97;18.42;;;6.30;90.80;;;;;;5044582;28;20036;-74
2022/01/27 07:46:49;;;;;;;34.30;19.60;;;6.30;91.20;;;;;;5032455;28;20025;-75
2022/01/27 07:49:15;;;;;;;36.95;20.50;;;6.40;91.00;;;;;;5032778;28;20486;-75
2022/01/27 07:51:41;;;;;;;37.92;19.02;;;6.40;91.00;;;;;;5030701;28;20036;-75
2022/01/27 07:54:07;;;;;;;42.55;20.45;;;6.40;91.00;;;;;;5030194;28;20029;-75
2022/01/27 07:56:33;;;;;;;33.67;18.70;;;6.40;91.00;;;;;;5039169;28;20460;-75
2022/01/27 07:58:59;;;;;;;35.20;18.35;;;6.40;91.00;;;;;;5040966;28;20040;-75
2022/01/27 08:01:24;;;;;;;37.25;20.45;;;6.40;91.10;;;;;;5043497;28;20084;-75
2022/01/27 08:03:50;;;;;;;34.38;18.45;;;6.40;91.10;;;;;;5032531;28;20115;-75
2022/01/27 08:06:16;;;;;;;30.50;18.23;;;6.40;91.10;;;;;;5021467;28;20503;-74
2022/01/27 08:08:43;;;;;;;35.97;20.55;;;6.40;91.20;;;;;;5027232;28;20072;-75
2022/01/27 08:11:08;;;;;;;35.65;20.48;;;6.40;91.30;;;;;;5034988;28;20035;-75
2022/01/27 08:13:36;;;;;;;34.28;19.00;;;6.40;91.30;;;;;;5008142;28;20025;-75
2022/01/27 08:16:02;;;;;;;31.45;17.63;;;6.50;91.40;;;;;;5029820;28;20496;-75
2022/01/27 08:18:28;;;;;;;34.20;20.77;;;6.50;91.40;;;;;;5042011;28;20029;-75
2022/01/27 08:20:53;;;;;;;34.97;18.65;;;6.40;91.40;;;;;;5027616;28;20407;-76
2022/01/27 08:23:20;;;;;;;31.83;18.38;;;6.50;91.40;;;;;;5012342;28;20037;-76
2022/01/27 08:25:49;;;;;;;30.52;17.77;;;6.40;91.40;;;;;;5012463;28;20036;-76
2022/01/27 08:28:24;;;;;;;35.20;18.73;;;6.50;91.50;;;;;;5029628;28;20021;-76
2022/01/27 08:30:53;;;;;;;31.40;18.35;;;6.50;91.50;;;;;;5027905;28;20449;-76
2022/01/27 08:33:19;;;;;;;34.35;18.30;;;6.50;91.50;;;;;;5011560;28;20025;-76
2022/01/27 08:35:45;;;;;;;31.85;19.13;;;6.50;91.50;;;;;;5030577;28;20033;-76
2022/01/27 08:38:11;;;;;;;30.25;18.88;;;6.50;91.50;;;;;;5030331;28;20061;-75
2022/01/27 08:40:37;;;;;;;30.50;17.27;;;6.50;91.50;;;;;;5030331;28;20057;-75
2022/01/27 08:43:04;;;;;;;29.98;16.98;;;6.50;91.50;;;;;;5030291;28;20112;-71
2022/01/27 08:45:30;;;;;;;27.73;18.00;;;6.50;91.50;;;;;;4996435;28;20133;-71
2022/01/27 08:47:58;;;;;;;33.45;17.77;;;6.50;91.60;;;;;;5011044;28;20554;-71
2022/01/27 08:50:24;;;;;;;32.35;18.73;;;6.50;91.60;;;;;;5030454;28;20029;-71
2022/01/27 08:52:51;;;;;;;33.58;17.77;;;6.50;91.70;;;;;;5012226;28;20040;-71
2022/01/27 08:55:17;;;;;;;37.33;20.23;;;6.50;91.70;;;;;;5031029;28;20030;-71
2022/01/27 08:57:43;;;;;;;30.17;16.92;;;6.60;91.70;;;;;;5012408;28;20088;-75
2022/01/27 09:00:11;;;;;;;27.40;18.27;;;6.60;91.70;;;;;;5000027;28;20104;-75
2022/01/27 09:02:37;;;;;;;29.27;18.00;;;6.60;91.70;;;;;;5028889;28;20040;-76
2022/01/27 09:05:05;;;;;;;25.42;17.20;;;6.60;91.70;;;;;;5029786;28;20037;-76
2022/01/27 09:07:31;;;;;;;29.45;16.55;;;6.60;91.80;;;;;;5030572;28;20493;-75
2022/01/27 09:09:57;;;;;;;31.77;16.77;;;6.60;91.70;;;;;;4994350;28;20437;-75
2022/01/27 09:12:23;;;;;;;32.35;17.95;;;6.70;91.80;;;;;;5009075;28;20033;-76
2022/01/27 09:14:48;;;;;;;28.27;17.35;;;6.70;91.80;;;;;;5012549;28;20033;-77
2022/01/27 09:17:15;;;;;;;26.77;16.73;;;6.70;91.80;;;;;;5012239;28;20025;-78
2022/01/27 09:19:44;;;;;;;25.95;16.48;;;6.70;91.80;;;;;;5033537;28;20144;-74
2022/01/27 09:22:13;;;;;;;27.42;15.98;;;6.80;91.90;;;;;;5028627;28;20116;-76
2022/01/27 09:24:51;;;;;;;25.88;15.95;;;6.70;91.80;;;;;;5015061;28;20025;-76
2022/01/27 09:27:17;;;;;;;26.05;15.60;;;6.70;91.80;;;;;;5011925;28;20543;-76
2022/01/27 09:29:44;;;;;;;24.25;15.35;;;6.80;91.90;;;;;;5029597;28;20053;-71
2022/01/27 09:32:11;;;;;;;23.83;14.90;;;6.80;91.90;;;;;;5010748;28;20116;-71
2022/01/27 09:34:37;;;;;;;22.98;15.10;;;6.80;91.90;;;;;;4995249;28;20029;-70
2022/01/27 09:37:04;;;;;;;26.98;15.43;;;6.80;91.90;;;;;;5029006;28;20041;-70
2022/01/27 09:39:33;;;;;;;25.98;14.82;;;6.80;92.10;;;;;;5027887;28;20247;-70
2022/01/27 09:42:01;;;;;;;20.27;12.55;;;6.80;91.90;;;;;;5029480;28;20083;-76
2022/01/27 09:44:30;;;;;;;21.83;13.70;;;6.90;91.90;;;;;;5011000;28;20029;-77
2022/01/27 09:47:00;;;;;;;20.95;14.07;;;6.90;91.90;;;;;;5017762;28;20136;-77
2022/01/27 09:49:33;;;;;;;21.85;12.95;;;6.90;92.00;;;;;;5004003;28;20022;-76
2022/01/27 09:52:00;;;;;;;21.40;13.70;;;6.90;92.00;;;;;;5009569;28;20476;-76
2022/01/27 09:54:25;;;;;;;23.55;15.85;;;6.90;92.00;;;;;;5029361;28;20036;-76
2022/01/27 09:56:53;;;;;;;21.83;14.10;;;6.90;92.00;;;;;;5028885;28;20139;-76
2022/01/27 09:59:20;;;;;;;23.05;14.48;;;6.90;92.00;;;;;;5028285;28;20044;-76
2022/01/27 10:02:06;;;;;;;22.30;14.48;;;6.90;92.00;;;;;;5030571;28;20036;-76
2022/01/27 10:04:51;;;;;;;18.77;12.60;;;7.00;92.10;;;;;;5031040;28;20483;-76
2022/01/27 10:07:20;;;;;;;23.95;14.75;;;7.00;92.10;;;;;;5025933;28;20014;-75
2022/01/27 10:09:57;;;;;;;22.27;13.68;;;7.00;92.10;;;;;;5035352;28;20029;-76
2022/01/27 10:12:29;;;;;;;24.73;13.70;;;7.00;92.10;;;;;;5034519;28;20065;-70
2022/01/27 10:15:23;;;;;;;19.85;13.25;;;7.00;92.10;;;;;;5041481;28;20052;-77
2022/01/27 10:18:11;;;;;;;19.77;13.73;;;7.00;92.10;;;;;;5022809;28;20043;-77
2022/01/27 10:20:40;;;;;;;18.38;12.60;;;7.00;92.20;;;;;;5041907;28;20495;-77
2022/01/27 10:23:21;;;;;;;17.40;12.23;;;7.10;92.20;;;;;;5040482;28;20018;-78
2022/01/27 10:25:57;;;;;;;19.88;12.45;;;7.10;92.20;;;;;;5038920;28;20029;-77
2022/01/27 10:28:35;;;;;;;21.58;13.00;;;7.10;92.20;;;;;;5039419;28;20027;-78
2022/01/27 10:31:07;;;;;;;17.05;11.70;;;7.10;92.20;;;;;;5036818;28;20057;-77
2022/01/27 10:33:51;;;;;;;15.82;11.55;;;7.20;92.20;;;;;;5037323;28;20382;-78
2022/01/27 10:36:29;;;;;;;18.60;12.23;;;7.20;92.20;;;;;;5041852;28;20025;-77
2022/01/27 10:39:15;;;;;;;14.68;10.38;;;7.20;92.20;;;;;;5039791;28;20385;-77
2022/01/27 10:42:10;;;;;;;13.10;10.55;;;7.20;92.20;;;;;;5038383;28;20029;-78
2022/01/27 10:44:42;;;;;;;14.60;10.63;;;7.20;92.20;;;;;;5019168;28;20049;-78
2022/01/27 10:47:17;;;;;;;14.23;9.45;;;7.30;92.30;;;;;;5014290;28;20112;-78
2022/01/27 10:49:48;;;;;;;14.07;10.65;;;7.30;92.30;;;;;;5031519;28;20083;-78
2022/01/27 10:52:40;;;;;;;12.80;9.18;;;7.30;92.30;;;;;;5026664;28;20024;-78
2022/01/27 10:55:14;;;;;;;12.00;10.10;;;7.30;92.30;;;;;;5022062;28;20068;-77
2022/01/27 10:57:44;;;;;;;14.50;10.30;;;7.30;92.30;;;;;;5031147;28;20468;-77
2022/01/27 11:00:16;;;;;;;18.63;12.07;;;7.40;92.40;;;;;;5014066;28;20061;-78
2022/01/27 11:03:01;;;;;;;18.17;12.75;;;7.40;92.50;;;;;;5024607;28;20125;-78
2022/01/27 11:05:38;;;;;;;16.40;11.23;;;7.40;92.50;;;;;;5026631;28;20384;-75
2022/01/27 11:08:04;;;;;;;13.88;10.38;;;7.40;92.50;;;;;;5033361;28;20040;-77
2022/01/27 11:10:30;;;;;;;16.10;11.32;;;7.40;92.50;;;;;;5043848;28;20095;-77
2022/01/27 11:12:58;;;;;;;21.58;13.70;;;7.50;92.50;;;;;;5013604;28;20754;-77
2022/01/27 11:15:24;;;;;;;21.02;13.98;;;7.50;92.50;;;;;;5031462;28;20030;-78
2022/01/27 11:17:51;;;;;;;19.70;13.43;;;7.50;92.50;;;;;;5030891;28;20072;-76
2022/01/27 11:28:01;;;;;;;21.85;14.82;;;7.70;92.60;;;;;;5031991;28;20053;-70
2022/01/27 11:30:33;;;;;;;22.50;14.63;;;7.70;92.60;;;;;;5032814;28;20057;-70
2022/01/27 11:33:06;;;;;;;22.25;14.15;;;7.70;92.60;;;;;;5012891;28;20657;-70
2022/01/27 11:35:31;;;;;;;;;;;7.70;92.60;;;;;;5022210;28;20036;-70
2022/01/27 11:38:08;;;;;;;20.80;13.95;;;7.70;92.60;;;;;;5028648;28;20372;-69
2022/01/27 11:40:39;;;;;;;21.73;14.80;;;7.70;92.60;;;;;;5031988;28;20041;-70
2022/01/27 11:43:08;;;;;;;21.65;15.23;;;7.80;92.70;;;;;;5015115;28;20025;-70
2022/01/27 11:45:38;;;;;;;21.80;14.55;;;7.80;92.70;;;;;;5022015;28;20037;-71
2022/01/27 11:48:18;;;;;;;22.25;15.75;;;7.80;92.60;;;;;;5023446;28;20033;-69
2022/01/27 11:53:33;;;;;;;25.30;16.33;;;7.90;92.60;;;;;;5029828;28;20057;-69
2022/01/27 11:56:01;;;;;;;21.40;14.75;;;7.90;92.60;;;;;;5028154;28;20429;-70
2022/01/27 11:58:27;;;;;;;22.05;15.20;;;8.00;92.60;;;;;;5039078;28;20116;-70
2022/01/27 12:01:07;;;;;;;28.65;16.73;;;8.00;92.60;;;;;;5028470;28;20445;-70
2022/01/27 12:03:34;;;;;;;23.20;16.17;;;8.00;92.60;;;;;;5028238;28;20384;-70
2022/01/27 12:06:21;;;;;;;25.55;15.63;;;8.10;92.60;;;;;;5036284;28;20029;-70
2022/01/27 12:08:48;;;;;;;29.38;17.55;;;8.10;92.60;;;;;;5037174;28;20029;-70
2022/01/27 12:11:53;;;;;;;24.92;15.93;;;8.10;92.60;;;;;;5038836;28;20104;-70
2022/01/27 12:14:34;;;;;;;31.42;17.00;;;8.10;92.60;;;;;;5023185;28;20354;-70
2022/01/27 12:17:09;;;;;;;25.42;15.63;;;8.10;92.60;;;;;;5027441;28;20029;-70
2022/01/27 12:20:01;;;;;;;24.88;15.75;;;8.10;92.60;;;;;;5030602;28;20038;-70
2022/01/27 12:22:52;;;;;;;25.73;15.68;;;8.10;92.60;;;;;;5033503;28;20486;-70
2022/01/27 12:25:19;;;;;;;23.52;14.80;;;8.10;92.50;;;;;;5041889;28;20070;-69
2022/01/27 12:27:54;;;;;;;25.55;16.70;;;8.10;92.60;;;;;;5024876;28;20053;-70
2022/01/27 12:30:22;;;;;;;25.60;15.35;;;8.20;92.60;;;;;;5031435;28;20461;-70
2022/01/27 12:32:53;;;;;;;23.90;14.60;;;8.20;92.60;;;;;;5015017;28;20018;-70
2022/01/27 12:35:19;;;;;;;29.02;16.58;;;8.20;92.60;;;;;;5027237;28;20587;-70
2022/01/27 12:37:49;;;;;;;24.23;15.68;;;8.20;92.60;;;;;;5027794;28;20121;-69
2022/01/27 12:40:42;;;;;;;25.75;14.45;;;8.20;92.60;;;;;;5020789;28;20426;-69
2022/01/27 12:43:13;;;;;;;;;;;8.20;92.50;;;;;;5024758;28;20521;-70
2022/01/27 12:45:42;;;;;;;21.67;14.18;;;8.20;92.50;;;;;;5012146;28;19919;-69
2022/01/27 12:48:11;;;;;;;23.67;14.35;;;8.20;92.60;;;;;;5011537;28;20128;-69
2022/01/27 12:50:37;;;;;;;23.00;13.77;;;8.20;92.60;;;;;;5030058;28;20032;-69
2022/01/27 12:53:10;;;;;;;22.83;14.95;;;8.30;92.60;;;;;;5029943;28;20079;-69
2022/01/27 12:55:39;;;;;;;24.13;16.15;;;8.30;92.60;;;;;;4996035;28;20021;-70
2022/01/27 12:58:13;;;;;;;25.15;14.57;;;8.30;92.60;;;;;;5028764;28;20036;-69
2022/01/27 13:00:41;;;;;;;22.50;13.07;;;8.30;92.60;;;;;;5029602;28;20029;-70
2022/01/27 13:03:07;;;;;;;20.10;11.80;;;8.40;92.60;;;;;;5029578;28;20029;-70
2022/01/27 13:05:34;;;;;;;25.92;12.35;;;8.40;92.60;;;;;;5012502;28;20121;-70
2022/01/27 13:08:08;;;;;;;20.92;12.18;;;8.40;92.60;;;;;;5011144;28;20037;-69
2022/01/27 13:10:34;;;;;;;19.75;12.82;;;8.50;92.60;;;;;;5030312;28;20028;-70
2022/01/27 13:13:13;;;;;;;20.85;12.38;;;8.50;92.50;;;;;;5028635;28;20035;-70
2022/01/27 13:15:39;;;;;;;20.35;11.98;;;8.50;92.50;;;;;;5029707;28;20110;-70
2022/01/27 13:18:16;;;;;;;23.73;11.73;;;8.60;92.50;;;;;;5028531;28;20034;-69
2022/01/27 13:20:45;;;;;;;22.00;11.57;;;8.60;92.40;;;;;;5029320;28;20072;-70
2022/01/27 13:23:18;;;;;;;21.02;11.20;;;8.70;92.40;;;;;;5029574;28;20230;-69
2022/01/27 13:25:48;;;;;;;21.20;11.27;;;8.70;92.40;;;;;;5012655;28;20025;-69
2022/01/27 13:28:22;;;;;;;17.80;10.32;;;8.70;92.30;;;;;;5015006;28;20523;-70
2022/01/27 13:30:51;;;;;;;20.50;11.23;;;8.70;92.20;;;;;;5010259;28;20519;-69
2022/01/27 13:33:23;;;;;;;22.33;10.63;;;8.70;92.20;;;;;;5009857;28;20495;-69
2022/01/27 13:35:50;;;;;;;15.88;9.52;;;8.70;92.20;;;;;;5027432;28;20029;-69
2022/01/27 13:38:21;;;;;;;19.80;10.25;;;8.80;92.30;;;;;;5013621;28;20029;-69
2022/01/27 13:43:40;;;;;;;15.43;8.40;;;8.90;92.20;;;;;;5014592;28;20171;-70
2022/01/27 13:46:08;;;;;;;16.40;8.60;;;8.90;92.10;;;;;;5017689;28;20115;-70